createdAt,value
2018-01-13T00:02:22.614Z,173.57
2018-01-13T00:04:50.869Z,158.23
2018-01-13T00:07:18.315Z,124.22
2018-01-13T00:09:45.978Z,174.68
2018-01-13T00:12:13.730Z,136.93
2018-01-13T00:14:41.157Z,134.98
2018-01-13T00:17:08.610Z,168.35
2018-01-13T00:19:36.062Z,137.95
2018-01-13T00:22:03.558Z,123.28
2018-01-13T00:24:31.193Z,127.03
2018-01-13T00:26:58.686Z,143.65
2018-01-13T00:29:26.149Z,130.45
2018-01-13T00:31:53.588Z,128.12
2018-01-13T00:34:22.013Z,132.70
2018-01-13T00:36:50.352Z,143.10
2018-01-13T00:39:17.913Z,104.85
2018-01-13T00:41:45.369Z,119.32
2018-01-13T00:44:13.128Z,123.05
2018-01-13T00:46:40.601Z,153.35
2018-01-13T00:49:08.357Z,148.18
2018-01-13T00:51:35.807Z,140.15
2018-01-13T00:54:03.902Z,156.07
2018-01-13T00:56:31.345Z,123.40
2018-01-13T00:58:58.790Z,120.47
2018-01-13T01:01:26.271Z,140.98
2018-01-13T01:03:53.897Z,132.70
2018-01-13T01:06:21.498Z,139.57
2018-01-13T01:08:49.133Z,148.30
2018-01-13T01:11:16.630Z,136.75
2018-01-13T01:13:44.165Z,107.40
2018-01-13T01:16:12.240Z,102.87
2018-01-13T01:18:39.682Z,143.85
2018-01-13T01:21:07.157Z,105.78
2018-01-13T01:23:34.799Z,118.20
2018-01-13T01:26:02.242Z,122.32
2018-01-13T01:28:29.677Z,122.85
2018-01-13T01:30:57.171Z,116.50
2018-01-13T01:33:24.689Z,113.03
2018-01-13T01:35:52.132Z,126.38
2018-01-13T01:38:19.645Z,127.10
2018-01-13T01:40:47.137Z,120.75
2018-01-13T01:43:14.571Z,136.18
2018-01-13T01:45:42.006Z,127.57
2018-01-13T01:48:21.329Z,116.37
2018-01-13T01:50:49.738Z,118.75
2018-01-13T01:53:17.180Z,119.07
2018-01-13T01:55:44.674Z,115.18
2018-01-13T01:58:12.149Z,130.70
2018-01-13T02:00:39.701Z,115.70
2018-01-13T02:03:07.130Z,120.25
2018-01-13T02:05:34.562Z,104.40
2018-01-13T02:08:01.997Z,117.60
2018-01-13T02:10:29.430Z,121.80
2018-01-13T02:12:56.870Z,105.03
2018-01-13T02:15:24.311Z,104.85
2018-01-13T02:17:51.783Z,87.55
2018-01-13T02:20:19.220Z,70.35
2018-01-13T02:22:47.126Z,101.55
2018-01-13T02:25:14.554Z,81.70
2018-01-13T02:27:41.988Z,88.10
2018-01-13T02:30:09.492Z,84.03
2018-01-13T02:32:37.135Z,77.97
2018-01-13T02:35:04.725Z,93.50
2018-01-13T02:37:32.345Z,88.95
2018-01-13T02:39:59.799Z,97.10
2018-01-13T02:42:27.408Z,85.35
2018-01-13T02:44:55.158Z,87.45
2018-01-13T02:47:22.613Z,80.03
2018-01-13T02:49:50.046Z,99.53
2018-01-13T02:52:17.533Z,102.40
2018-01-13T02:54:45.165Z,79.47
2018-01-13T02:57:12.589Z,97.57
2018-01-13T02:59:40.230Z,100.80
2018-01-13T03:02:07.696Z,93.12
2018-01-13T03:04:35.139Z,94.60
2018-01-13T03:07:02.740Z,94.00
2018-01-13T03:09:31.155Z,90.32
2018-01-13T03:11:58.747Z,108.22
2018-01-13T03:14:26.171Z,101.57
2018-01-13T03:16:53.606Z,103.70
2018-01-13T03:19:21.034Z,90.50
2018-01-13T03:21:49.398Z,115.35
2018-01-13T03:24:16.937Z,85.75
2018-01-13T03:26:44.713Z,113.53
2018-01-13T03:29:12.178Z,128.32
2018-01-13T03:31:39.606Z,120.72
2018-01-13T03:34:07.058Z,132.60
2018-01-13T03:36:34.498Z,107.72
2018-01-13T03:39:01.930Z,116.95
2018-01-13T03:41:29.449Z,113.78
2018-01-13T03:43:57.090Z,123.20
2018-01-13T03:46:24.602Z,130.12
2018-01-13T03:48:52.050Z,121.72
2018-01-13T03:51:19.537Z,110.82
2018-01-13T03:53:46.984Z,122.65
2018-01-13T03:56:14.414Z,121.18
2018-01-13T03:58:41.849Z,95.30
2018-01-13T04:01:09.389Z,102.30
2018-01-13T04:03:36.830Z,122.57
2018-01-13T04:06:04.340Z,100.70
2018-01-13T04:08:31.798Z,113.15
2018-01-13T04:10:59.233Z,90.10
2018-01-13T04:13:26.890Z,106.87
2018-01-13T04:15:54.489Z,123.25
2018-01-13T04:18:21.976Z,96.00
2018-01-13T04:20:49.705Z,108.25
2018-01-13T04:23:17.141Z,100.78
2018-01-13T04:25:44.668Z,97.72
2018-01-13T04:28:12.409Z,131.32
2018-01-13T04:30:39.873Z,81.00
2018-01-13T04:33:07.301Z,83.72
2018-01-13T04:35:35.061Z,93.10
2018-01-13T04:38:02.703Z,85.93
2018-01-13T04:40:30.135Z,93.62
2018-01-13T04:42:58.528Z,96.20
2018-01-13T04:45:26.042Z,112.35
2018-01-13T04:47:53.587Z,79.32
2018-01-13T04:50:21.043Z,108.35
2018-01-13T04:52:48.683Z,85.85
2018-01-13T04:55:16.184Z,84.72
2018-01-13T04:57:43.714Z,95.60
2018-01-13T05:00:11.194Z,90.10
2018-01-13T05:02:38.645Z,88.95
2018-01-13T05:05:06.285Z,90.22
2018-01-13T05:07:33.721Z,99.55
2018-01-13T05:10:01.319Z,86.15
2018-01-13T05:12:28.751Z,104.28
2018-01-13T05:14:56.231Z,95.93
2018-01-13T05:17:23.673Z,86.25
2018-01-13T05:19:51.129Z,80.07
2018-01-13T05:22:18.557Z,81.95
2018-01-13T05:24:46.018Z,72.70
2018-01-13T05:27:14.309Z,71.75
2018-01-13T05:29:42.248Z,80.12
2018-01-13T05:32:10.170Z,71.75
2018-01-13T05:34:37.737Z,92.05
2018-01-13T05:37:05.167Z,79.78
2018-01-13T05:39:32.596Z,67.93
2018-01-13T05:42:00.796Z,69.55
2018-01-13T05:44:28.232Z,62.75
2018-01-13T05:46:55.957Z,81.32
2018-01-13T05:49:23.377Z,60.97
2018-01-13T05:51:50.869Z,67.18
2018-01-13T05:54:18.305Z,69.40
2018-01-13T05:56:45.765Z,74.78
2018-01-13T05:59:13.238Z,66.90
2018-01-13T06:01:40.681Z,53.87
2018-01-13T06:04:08.113Z,64.50
2018-01-13T06:06:35.625Z,61.65
2018-01-13T06:09:03.054Z,78.18
2018-01-13T06:11:30.490Z,70.62
2018-01-13T06:13:57.933Z,72.65
2018-01-13T06:16:25.441Z,61.10
2018-01-13T06:18:52.891Z,66.47
2018-01-13T06:21:20.331Z,74.95
2018-01-13T06:23:47.967Z,64.12
2018-01-13T06:26:16.159Z,74.75
2018-01-13T06:28:43.657Z,66.97
2018-01-13T06:31:11.114Z,66.22
2018-01-13T06:33:38.545Z,60.85
2018-01-13T06:36:06.026Z,63.05
2018-01-13T06:38:33.487Z,75.90
2018-01-13T06:41:00.949Z,87.93
2018-01-13T06:43:28.383Z,64.37
2018-01-13T06:45:55.869Z,55.35
2018-01-13T06:48:23.303Z,56.50
2018-01-13T06:50:50.758Z,64.87
2018-01-13T06:53:18.188Z,75.53
2018-01-13T06:55:45.613Z,56.50
2018-01-13T06:58:13.046Z,57.42
2018-01-13T07:00:40.538Z,70.50
2018-01-13T07:03:08.066Z,64.57
2018-01-13T07:05:35.525Z,82.90
2018-01-13T07:08:03.313Z,64.40
2018-01-13T07:10:30.742Z,61.28
2018-01-13T07:12:58.172Z,96.05
2018-01-13T07:15:25.603Z,73.85
2018-01-13T07:17:53.955Z,69.37
2018-01-13T07:20:21.398Z,72.30
2018-01-13T07:22:49.034Z,76.90
2018-01-13T07:25:16.465Z,99.60
2018-01-13T07:27:44.189Z,75.93
2018-01-13T07:30:11.633Z,91.30
2018-01-13T07:32:39.079Z,77.00
2018-01-13T07:35:06.549Z,88.30
2018-01-13T07:37:34.012Z,98.53
2018-01-13T07:40:01.450Z,90.25
2018-01-13T07:42:28.921Z,83.18
2018-01-13T07:44:56.573Z,92.40
2018-01-13T07:47:24.140Z,84.60
2018-01-13T07:49:51.781Z,82.22
2018-01-13T07:52:19.368Z,96.12
2018-01-13T07:54:46.881Z,94.78
2018-01-13T07:57:14.648Z,91.75
2018-01-13T07:59:42.230Z,80.87
2018-01-13T08:02:09.733Z,99.10
2018-01-13T08:04:37.277Z,64.97
2018-01-13T08:07:04.710Z,68.75
2018-01-13T08:09:32.142Z,85.97
2018-01-13T08:11:59.581Z,99.50
2018-01-13T08:14:27.010Z,75.28
2018-01-13T08:16:54.566Z,82.10
2018-01-13T08:19:22.209Z,67.93
2018-01-13T08:21:49.654Z,89.85
2018-01-13T08:24:17.074Z,89.13
2018-01-13T08:26:44.696Z,68.62
2018-01-13T08:29:12.150Z,71.93
2018-01-13T08:31:39.921Z,82.95
2018-01-13T08:34:07.569Z,96.93
2018-01-13T08:36:35.047Z,83.78
2018-01-13T08:39:02.625Z,81.63
2018-01-13T08:41:30.059Z,69.78
2018-01-13T08:43:57.505Z,87.07
2018-01-13T08:46:24.941Z,74.90
2018-01-13T08:48:52.369Z,70.93
2018-01-13T08:51:19.797Z,70.68
2018-01-13T08:53:47.254Z,70.78
2018-01-13T08:56:14.813Z,80.10
2018-01-13T08:58:42.237Z,86.30
2018-01-13T09:01:09.706Z,72.80
2018-01-13T09:03:37.126Z,72.30
2018-01-13T09:06:04.573Z,79.90
2018-01-13T09:08:32.006Z,56.97
2018-01-13T09:10:59.468Z,81.95
2018-01-13T09:13:26.913Z,78.45
2018-01-13T09:15:54.385Z,60.75
2018-01-13T09:18:21.838Z,58.28
2018-01-13T09:20:49.298Z,61.95
2018-01-13T09:23:16.732Z,61.00
2018-01-13T09:25:44.225Z,56.90
2018-01-13T09:28:11.669Z,53.03
2018-01-13T09:30:39.137Z,65.93
2018-01-13T09:33:06.565Z,60.97
2018-01-13T09:35:34.029Z,62.03
2018-01-13T09:38:01.461Z,52.30
2018-01-13T09:40:28.921Z,44.13
2018-01-13T09:42:56.408Z,55.72
2018-01-13T09:45:23.969Z,53.97
2018-01-13T09:47:51.615Z,48.95
2018-01-13T09:50:19.093Z,48.67
2018-01-13T09:52:46.533Z,54.65
2018-01-13T09:55:14.026Z,46.25
2018-01-13T09:57:41.582Z,45.92
2018-01-13T10:00:09.337Z,64.85
2018-01-13T10:02:36.765Z,52.72
2018-01-13T10:05:04.193Z,42.75
2018-01-13T10:07:31.621Z,38.25
2018-01-13T10:09:59.163Z,45.08
2018-01-13T10:12:26.590Z,42.78
2018-01-13T10:14:54.022Z,39.22
2018-01-13T10:17:21.542Z,38.50
2018-01-13T10:19:48.989Z,43.65
2018-01-13T10:22:16.625Z,39.97
2018-01-13T10:24:44.086Z,32.92
2018-01-13T10:27:11.531Z,32.55
2018-01-13T10:29:39.929Z,36.17
2018-01-13T10:32:07.510Z,34.88
2018-01-13T10:34:34.961Z,40.50
2018-01-13T10:37:02.404Z,34.38
2018-01-13T10:39:29.837Z,33.92
2018-01-13T10:41:57.329Z,29.42
2018-01-13T10:44:24.797Z,36.20
2018-01-13T10:46:52.250Z,43.35
2018-01-13T10:49:19.719Z,29.35
2018-01-13T10:51:47.173Z,33.45
2018-01-13T10:54:15.422Z,28.87
2018-01-13T10:56:42.893Z,26.65
2018-01-13T10:59:10.388Z,25.90
2018-01-13T11:01:37.826Z,35.60
2018-01-13T11:04:05.405Z,36.67
2018-01-13T11:06:32.826Z,26.50
2018-01-13T11:09:00.271Z,25.37
2018-01-13T11:11:27.701Z,22.50
2018-01-13T11:13:55.218Z,19.00
2018-01-13T11:16:22.672Z,18.80
2018-01-13T11:18:50.110Z,25.95
2018-01-13T11:21:17.537Z,23.12
2018-01-13T11:23:44.981Z,21.92
2018-01-13T11:26:12.526Z,19.30
2018-01-13T11:28:40.266Z,17.80
2018-01-13T11:31:07.747Z,16.25
2018-01-13T11:33:35.278Z,22.65
2018-01-13T11:36:02.926Z,15.05
2018-01-13T11:38:30.348Z,20.85
2018-01-13T11:40:57.780Z,15.77
2018-01-13T11:43:25.321Z,19.12
2018-01-13T11:45:52.953Z,18.40
2018-01-13T11:48:20.545Z,16.00
2018-01-13T11:50:48.310Z,15.50
2018-01-13T11:53:15.750Z,18.12
2018-01-13T11:55:43.248Z,16.17
2018-01-13T11:58:10.876Z,19.62
2018-01-13T12:00:38.350Z,16.42
2018-01-13T12:03:05.794Z,14.02
2018-01-13T12:05:33.365Z,12.93
2018-01-13T12:08:01.129Z,18.23
2018-01-13T12:10:28.589Z,15.00
2018-01-13T12:12:56.033Z,17.33
2018-01-13T12:15:23.500Z,17.00
2018-01-13T12:17:50.957Z,19.40
2018-01-13T12:20:18.453Z,20.88
2018-01-13T12:22:46.186Z,13.35
2018-01-13T12:25:13.613Z,12.55
2018-01-13T12:27:41.043Z,13.10
2018-01-13T12:30:08.565Z,15.75
2018-01-13T12:32:36.022Z,15.63
2018-01-13T12:35:03.667Z,14.23
2018-01-13T12:37:31.242Z,13.25
2018-01-13T12:39:58.702Z,12.88
2018-01-13T12:42:26.125Z,12.82
2018-01-13T12:44:53.617Z,11.80
2018-01-13T12:47:21.072Z,12.60
2018-01-13T12:49:48.531Z,14.95
2018-01-13T12:52:16.295Z,12.98
2018-01-13T12:54:44.053Z,16.80
2018-01-13T12:57:11.477Z,10.15
2018-01-13T12:59:38.978Z,13.23
2018-01-13T13:02:06.605Z,12.25
2018-01-13T13:04:34.199Z,13.40
2018-01-13T13:07:01.830Z,11.05
2018-01-13T13:09:29.322Z,15.50
2018-01-13T13:11:56.759Z,12.68
2018-01-13T13:14:24.260Z,10.95
2018-01-13T13:16:51.678Z,14.32
2018-01-13T13:19:19.549Z,10.88
2018-01-13T13:21:47.021Z,14.15
2018-01-13T13:24:14.466Z,11.95
2018-01-13T13:26:41.932Z,29.37
2018-01-13T13:29:09.693Z,14.80
2018-01-13T13:31:37.126Z,12.00
2018-01-13T13:34:04.553Z,13.45
2018-01-13T13:36:31.978Z,16.27
2018-01-13T13:38:59.525Z,12.07
2018-01-13T13:41:26.953Z,14.20
2018-01-13T13:43:54.440Z,14.82
2018-01-13T13:46:21.869Z,10.27
2018-01-13T13:48:49.294Z,9.40
2018-01-13T13:51:16.725Z,16.80
2018-01-13T13:53:44.281Z,14.18
2018-01-13T13:56:11.905Z,17.05
2018-01-13T13:58:39.399Z,15.45
2018-01-13T14:01:28.368Z,12.80
2018-01-13T14:03:34.416Z,10.32
2018-01-13T14:06:01.871Z,9.70
2018-01-13T14:08:29.334Z,11.90
2018-01-13T14:10:56.841Z,14.50
2018-01-13T14:13:24.388Z,14.10
2018-01-13T14:15:51.918Z,12.37
2018-01-13T14:18:19.469Z,11.12
2018-01-13T14:20:47.109Z,9.93
2018-01-13T14:23:14.579Z,10.70
2018-01-13T14:25:41.980Z,8.32
2018-01-13T14:28:09.412Z,10.90
2018-01-13T14:30:37.041Z,11.63
2018-01-13T14:33:04.461Z,7.90
2018-01-13T14:35:31.985Z,13.75
2018-01-13T14:37:59.749Z,10.13
2018-01-13T14:40:27.210Z,13.85
2018-01-13T14:42:54.844Z,12.05
2018-01-13T14:45:22.342Z,11.90
2018-01-13T14:47:49.889Z,13.85
2018-01-13T14:50:17.535Z,12.55
2018-01-13T14:52:45.009Z,15.88
2018-01-13T14:55:12.514Z,11.52
2018-01-13T14:57:39.928Z,8.88
2018-01-13T15:00:07.363Z,10.43
2018-01-13T15:02:34.898Z,11.82
2018-01-13T15:05:02.450Z,9.10
2018-01-13T15:07:30.166Z,9.82
2018-01-13T15:09:57.793Z,8.65
2018-01-13T15:12:25.279Z,11.45
2018-01-13T15:14:52.845Z,11.52
2018-01-13T15:17:20.273Z,9.77
2018-01-13T15:19:47.697Z,10.68
2018-01-13T15:22:15.201Z,9.70
2018-01-13T15:24:42.686Z,10.63
2018-01-13T15:27:10.437Z,10.70
2018-01-13T15:29:38.282Z,12.30
2018-01-13T15:32:05.865Z,8.27
2018-01-13T15:34:33.430Z,10.35
2018-01-13T15:37:01.201Z,13.77
2018-01-13T15:39:28.644Z,12.27
2018-01-13T15:41:56.112Z,12.18
2018-01-13T15:44:23.749Z,12.85
2018-01-13T15:46:51.338Z,13.60
2018-01-13T15:49:18.960Z,9.20
2018-01-13T15:51:46.463Z,11.60
2018-01-13T15:54:13.880Z,12.40
2018-01-13T15:56:41.470Z,11.57
2018-01-13T15:59:08.933Z,19.95
2018-01-13T16:01:36.578Z,13.20
2018-01-13T16:04:04.005Z,13.35
2018-01-13T16:06:32.416Z,11.15
2018-01-13T16:08:59.884Z,15.80
2018-01-13T16:11:27.333Z,14.15
2018-01-13T16:13:54.809Z,11.43
2018-01-13T16:16:22.313Z,14.82
2018-01-13T16:18:49.733Z,13.98
2018-01-13T16:21:17.195Z,13.68
2018-01-13T16:23:44.752Z,10.95
2018-01-13T16:26:12.182Z,8.55
2018-01-13T16:28:39.652Z,18.70
2018-01-13T16:31:07.283Z,17.30
2018-01-13T16:33:34.762Z,12.23
2018-01-13T16:36:02.187Z,13.13
2018-01-13T16:38:29.798Z,13.80
2018-01-13T16:40:57.413Z,16.75
2018-01-13T16:43:25.821Z,21.35
2018-01-13T16:45:53.394Z,17.10
2018-01-13T16:48:21.034Z,16.77
2018-01-13T16:50:48.526Z,23.15
2018-01-13T16:53:16.077Z,15.85
2018-01-13T16:55:43.708Z,21.05
2018-01-13T16:58:11.332Z,18.75
2018-01-13T17:00:38.761Z,21.08
2018-01-13T17:03:06.185Z,22.27
2018-01-13T17:05:33.864Z,34.28
2018-01-13T17:08:01.452Z,26.10
2018-01-13T17:10:29.069Z,25.62
2018-01-13T17:12:56.594Z,24.00
2018-01-13T17:15:25.042Z,31.83
2018-01-13T17:17:52.489Z,37.85
2018-01-13T17:20:19.905Z,74.78
2018-01-13T17:22:47.618Z,40.33
2018-01-13T17:25:15.176Z,37.33
2018-01-13T17:27:42.828Z,31.80
2018-01-13T17:30:10.236Z,38.30
2018-01-13T17:32:37.774Z,31.90
2018-01-13T17:35:05.205Z,29.33
2018-01-13T17:37:32.774Z,37.72
2018-01-13T17:40:00.235Z,38.13
2018-01-13T17:42:27.710Z,20.95
2018-01-13T17:44:55.454Z,23.67
2018-01-13T17:47:22.914Z,23.12
2018-01-13T17:49:50.681Z,28.15
2018-01-13T17:52:18.142Z,33.25
2018-01-13T17:54:45.901Z,26.15
2018-01-13T17:57:13.325Z,34.63
2018-01-13T17:59:40.749Z,24.85
2018-01-13T18:02:08.277Z,25.42
2018-01-13T18:04:35.909Z,28.42
2018-01-13T18:07:03.402Z,18.87
2018-01-13T18:09:30.955Z,25.58
2018-01-13T18:11:58.386Z,23.95
2018-01-13T18:14:25.813Z,22.42
2018-01-13T18:16:53.233Z,31.95
2018-01-13T18:19:20.696Z,26.23
2018-01-13T18:21:48.180Z,24.80
2018-01-13T18:24:15.606Z,23.48
2018-01-13T18:26:43.161Z,28.65
2018-01-13T18:29:10.933Z,22.58
2018-01-13T18:31:38.665Z,45.92
2018-01-13T18:34:26.337Z,27.37
2018-01-13T18:36:53.793Z,38.55
2018-01-13T18:39:21.277Z,25.85
2018-01-13T18:41:48.797Z,30.95
2018-01-13T18:44:16.262Z,24.08
2018-01-13T18:46:43.907Z,28.40
2018-01-13T18:49:11.354Z,37.60
2018-01-13T18:51:38.905Z,40.42
2018-01-13T18:54:06.337Z,34.33
2018-01-13T18:56:34.678Z,31.92
2018-01-13T18:59:02.177Z,60.72
2018-01-13T19:01:30.369Z,29.80
2018-01-13T19:03:57.949Z,31.52
2018-01-13T19:06:25.526Z,23.50
2018-01-13T19:08:53.168Z,36.83
2018-01-13T19:11:20.691Z,21.48
2018-01-13T19:13:48.125Z,16.00
2018-01-13T19:16:15.670Z,19.12
2018-01-13T19:18:43.125Z,20.50
2018-01-13T19:21:10.582Z,21.37
2018-01-13T19:23:38.345Z,16.33
2018-01-13T19:26:05.769Z,17.52
2018-01-13T19:28:33.253Z,22.35
2018-01-13T19:31:00.657Z,18.48
2018-01-13T19:33:28.176Z,29.48
2018-01-13T19:35:55.813Z,16.48
2018-01-13T19:38:23.269Z,20.67
2018-01-13T19:40:50.858Z,19.37
2018-01-13T19:43:18.303Z,24.27
2018-01-13T19:45:45.781Z,16.95
2018-01-13T19:48:13.237Z,22.40
2018-01-13T19:50:41.000Z,19.25
2018-01-13T19:53:08.456Z,24.75
2018-01-13T19:55:35.913Z,20.35
2018-01-13T19:58:03.374Z,15.70
2018-01-13T20:00:30.831Z,24.12
2018-01-13T20:02:58.597Z,21.62
2018-01-13T20:05:26.285Z,26.62
2018-01-13T20:07:53.816Z,18.80
2018-01-13T20:10:21.582Z,21.27
2018-01-13T20:12:49.005Z,18.73
2018-01-13T20:15:16.445Z,29.30
2018-01-13T20:17:43.953Z,25.92
2018-01-13T20:20:11.395Z,22.08
2018-01-13T20:22:38.817Z,20.98
2018-01-13T20:25:07.286Z,20.27
2018-01-13T20:27:34.905Z,16.50
2018-01-13T20:30:02.385Z,17.95
2018-01-13T20:32:29.933Z,22.83
2018-01-13T20:34:57.393Z,14.32
2018-01-13T20:37:24.821Z,27.67
2018-01-13T20:39:52.257Z,22.10
2018-01-13T20:42:19.768Z,25.20
2018-01-13T20:44:47.220Z,23.12
2018-01-13T20:47:14.881Z,23.05
2018-01-13T20:49:42.305Z,21.37
2018-01-13T20:52:09.898Z,24.98
2018-01-13T20:54:37.658Z,18.50
2018-01-13T20:57:05.085Z,20.33
2018-01-13T20:59:32.580Z,17.62
2018-01-13T21:02:00.048Z,22.55
2018-01-13T21:04:27.669Z,26.77
2018-01-13T21:06:55.166Z,27.60
2018-01-13T21:09:22.717Z,22.02
2018-01-13T21:11:50.146Z,21.23
2018-01-13T21:14:17.573Z,25.35
2018-01-13T21:16:46.017Z,23.30
2018-01-13T21:19:13.442Z,23.17
2018-01-13T21:21:40.870Z,30.48
2018-01-13T21:24:08.393Z,21.48
2018-01-13T21:26:35.821Z,25.40
2018-01-13T21:29:03.249Z,25.48
2018-01-13T21:31:31.454Z,21.05
2018-01-13T21:33:59.146Z,26.35
2018-01-13T21:36:26.898Z,19.45
2018-01-13T21:38:54.325Z,28.23
2018-01-13T21:41:21.826Z,27.37
2018-01-13T21:43:49.457Z,34.53
2018-01-13T21:46:16.949Z,23.20
2018-01-13T21:48:44.505Z,34.33
2018-01-13T21:51:12.155Z,21.52
2018-01-13T21:53:39.560Z,22.08
2018-01-13T21:56:07.189Z,27.15
2018-01-13T21:58:34.739Z,24.27
2018-01-13T22:01:02.409Z,23.62
2018-01-13T22:03:29.858Z,33.08
2018-01-13T22:05:57.324Z,29.65
2018-01-13T22:08:24.957Z,24.80
2018-01-13T22:10:52.448Z,30.27
2018-01-13T22:13:20.646Z,40.25
2018-01-13T22:15:48.077Z,25.55
2018-01-13T22:18:15.713Z,33.47
2018-01-13T22:20:43.166Z,37.08
2018-01-13T22:23:10.843Z,30.88
2018-01-13T22:25:38.524Z,34.10
2018-01-13T22:28:05.985Z,38.45
2018-01-13T22:30:33.448Z,33.40
2018-01-13T22:33:00.926Z,44.28
2018-01-13T22:35:28.661Z,28.73
2018-01-13T22:37:56.124Z,27.83
2018-01-13T22:40:23.565Z,36.33
2018-01-13T22:42:50.982Z,31.50
2018-01-13T22:45:19.195Z,34.55
2018-01-13T22:47:46.893Z,34.00
2018-01-13T22:50:14.329Z,37.88
2018-01-13T22:52:41.980Z,31.10
2018-01-13T22:55:09.566Z,35.53
2018-01-13T22:57:37.203Z,29.15
2018-01-13T23:00:04.651Z,31.33
2018-01-13T23:02:32.241Z,36.97
2018-01-13T23:04:59.877Z,30.55
2018-01-13T23:07:27.778Z,29.25
2018-01-13T23:09:55.249Z,41.95
2018-01-13T23:12:22.691Z,27.37
2018-01-13T23:14:50.143Z,34.40
2018-01-13T23:17:17.599Z,30.55
2018-01-13T23:19:45.025Z,39.17
2018-01-13T23:22:12.480Z,28.67
2018-01-13T23:24:39.907Z,31.55
2018-01-13T23:27:19.021Z,32.95
2018-01-13T23:29:46.478Z,22.42
2018-01-13T23:32:14.017Z,39.55
2018-01-13T23:34:41.493Z,36.28
2018-01-13T23:37:08.907Z,28.55
2018-01-13T23:39:36.633Z,34.03
2018-01-13T23:42:05.090Z,27.85
2018-01-13T23:44:32.850Z,33.33
2018-01-13T23:47:00.318Z,39.67
2018-01-13T23:49:27.750Z,30.65
2018-01-13T23:51:55.218Z,28.92
2018-01-13T23:54:22.641Z,35.35
2018-01-13T23:56:50.133Z,34.42
2018-01-13T23:59:17.574Z,35.22
